Nearby METAR Reports

 

EDLW - Dortmund/Wickede, Germany
Distance from station: OSO 17km
Aktuell: 23/08/2019 06:50
klar
klar
 Wind aus SSO
Wind: SSO 11 km/h
Temperatur: 12°C
Taupunkt: 10°C
Luftfeuchte: 88%
Luftdruck: 1026 hPa
Zusammenfassung: klar
Visibility: greater than 10 km
2019/08/23 04:50 EDLW 230450Z 15006KT CAVOK 12/10 Q1026
EDDL - Duesseldorf, Germany
Distance from station: SW 52km
Aktuell: 23/08/2019 06:50
klar
klar
 Wind aus NNO
Wind: NNO 4 km/h
Temperatur: 11°C
Taupunkt: 11°C
Luftfeuchte: 100%
Luftdruck: 1026 hPa
Zusammenfassung: klar
Visibility: greater than 10 km
2019/08/23 04:50 EDDL 230450Z 02002KT CAVOK 11/11 Q1026 NOSIG
 
EDDG - Muenster/Osnabru, Germany
Distance from station: NNO 67km
Aktuell: 23/08/2019 06:50
Mist, teilweise bewölkt
Mist, teilweise bewölkt
 Wind aus varies
Wind: varies 2 km/h
Temperatur: 11°C
Taupunkt: 10°C
Luftfeuchte: 94%
Luftdruck: 1026 hPa
Zusammenfassung: Mist
Clouds: teilweise bewölkt
Visibility: 5 km
2019/08/23 04:50 EDDG 230450Z VRB01KT 5000 BR NSC 11/10 Q1026 NOSIG
EDLN - Monchengladbach, Germany
Distance from station: WSW 72km
Aktuell: 23/08/2019 06:50
klar
klar
 Wind aus calm
Wind: Windstill
Temperatur: 10°C
Taupunkt: 10°C
Luftfeuchte: 100%
Luftdruck: 1026 hPa
Clouds: klar
Visibility: 3 km
2019/08/23 04:50 EDLN 230450Z AUTO 00000KT 2800 // NCD 10/10 Q1026
 
EDDK - Koeln/Bonn, Germany
Distance from station: SSW 79km
Aktuell: 23/08/2019 06:50
klar
klar
 Wind aus varies
Wind: varies 2 km/h
Temperatur: 10°C
Taupunkt: 9°C
Luftfeuchte: 94%
Luftdruck: 1026 hPa
Zusammenfassung: klar
Visibility: greater than 10 km
2019/08/23 04:50 EDDK 230450Z VRB01KT CAVOK 10/09 Q1026 NOSIG
EDLP - Paderborn/Lippst, Germany
Distance from station: O 85km
Aktuell: 23/08/2019 06:50
klar
klar
 Wind aus varies
Wind: varies 4 km/h
Temperatur: 11°C
Taupunkt: 8°C
Luftfeuchte: 82%
Luftdruck: 1026 hPa
Zusammenfassung: klar
Visibility: greater than 10 km
2019/08/23 04:50 EDLP 230450Z VRB02KT CAVOK 11/08 Q1026
 
EDLV - Niederrhein, Germany
Distance from station: W 86km
Aktuell: 23/08/2019 06:50
klar
klar
 Wind aus varies
Wind: varies 4 km/h
Temperatur: 11°C
Taupunkt: 11°C
Luftfeuchte: 100%
Luftdruck: 1026 hPa
Zusammenfassung: klar
Visibility: greater than 10 km
2019/08/23 04:50 EDLV 230450Z VRB02KT CAVOK 11/11 Q1026
ETNN - Noervenich (gaf), Germany
Distance from station: SSW 97km
Aktuell: 23/08/2019 06:20
leicht bewölkt
leicht bewölkt
 Wind aus WSW
Wind: WSW 9 km/h
Temperatur: 13°C
Taupunkt: 11°C
Luftfeuchte: 88%
Luftdruck: 1026 hPa
Clouds: leicht bewölkt
Visibility: 10 km
Cloud details: leicht bewölkt 10668 m
2019/08/23 04:20 ETNN 230420Z 25005KT 9999 FEW350 13/11 Q1026 BLU+BLU+